^^
Station Historical Data
 
Daily Summary for December 11, 2017 Units:  English    Metric   Both
« Previous Day
Next Day »
Daily Weekly Monthly Yearly Custom
  Current: High: Low: Average:
Temperature: 30.1 °F 43.8 °F 26.9 °F 33.7 °F
Dew Point: 29.1 °F 41.2 °F 25.9 °F 32.5 °F
Humidity: 96% 98% 87% 95%
Wind Speed: 0.0mph 5.0mph 0.0mph 0.2mph
Wind Gust: 0.0mph 9.0mph - -
WindCalm - - SSW
Pressure: 30.42 in 30.42 in 30.34 in -
Precipitation: 0.00 in      
Historical Graphs
 
 
Tabular Data for December 11, 2017
Time Temperature Dew Point Pressure Wind Wind Speed Wind Gust Humidity Rainfall Rate (Hourly) solar Conditions
00:00 30.1 °F 29.1 °F 30.36 in Calm     96% 0.00 in 0.0 W/m2 CLR
00:05 30.2 °F 29.2 °F 30.36 in Calm     96% 0.00 in 0.0 W/m2 CLR
00:10 30.3 °F 29.3 °F 30.36 in Calm     96% 0.00 in 0.0 W/m2 CLR
00:15 30.3 °F 29.3 °F 30.36 in Calm     96% 0.00 in 0.0 W/m2 CLR
00:20 30.1 °F 29.1 °F 30.36 in Calm     96% 0.00 in 0.0 W/m2 CLR
00:25 30.2 °F 29.5 °F 30.36 in Calm     97% 0.00 in 0.0 W/m2 CLR
00:30 30.1 °F 29.1 °F 30.36 in Calm     96% 0.00 in 0.0 W/m2 CLR
00:35 29.9 °F 28.9 °F 30.36 in Calm     96% 0.00 in 0.0 W/m2 CLR
00:40 29.7 °F 28.7 °F 30.36 in Calm     96% 0.00 in 0.0 W/m2 CLR
00:45 29.5 °F 28.5 °F 30.36 in Calm     96% 0.00 in 0.0 W/m2 CLR
00:50 29.3 °F 28.3 °F 30.36 in Calm     96% 0.00 in 0.0 W/m2 CLR
00:55 29.2 °F 28.2 °F 30.36 in Calm     96% 0.00 in 0.0 W/m2 CLR
01:00 29.1 °F 28.1 °F 30.36 in Calm     96% 0.00 in 0.0 W/m2 CLR
01:05 29.0 °F 28.0 °F 30.36 in Calm     96% 0.00 in 0.0 W/m2 CLR
01:10 29.3 °F 28.6 °F 30.36 in Calm     97% 0.00 in 0.0 W/m2 CLR
01:15 29.4 °F 28.7 °F 30.36 in Calm     97% 0.00 in 0.0 W/m2 CLR
01:20 29.5 °F 28.8 °F 30.36 in Calm     97% 0.00 in 0.0 W/m2 CLR
01:25 29.7 °F 29.0 °F 30.36 in Calm     97% 0.00 in 0.0 W/m2 CLR
01:30 29.6 °F 28.6 °F 30.36 in Calm     96% 0.00 in 0.0 W/m2 CLR
01:40 29.2 °F 28.2 °F 30.36 in Calm     96% 0.00 in 0.0 W/m2 CLR
01:45 29.1 °F 28.1 °F 30.36 in Calm     96% 0.00 in 0.0 W/m2 CLR
01:50 29.0 °F 28.0 °F 30.35 in Calm     96% 0.00 in 0.0 W/m2 CLR
01:55 28.9 °F 27.9 °F 30.35 in Calm     96% 0.00 in 0.0 W/m2 CLR
02:00 28.8 °F 27.8 °F 30.35 in Calm     96% 0.00 in 0.0 W/m2 CLR
02:05 28.7 °F 27.7 °F 30.35 in Calm     96% 0.00 in 0.0 W/m2 CLR
02:10 28.7 °F 27.7 °F 30.35 in Calm     96% 0.00 in 0.0 W/m2 CLR
02:15 28.6 °F 27.6 °F 30.35 in Calm     96% 0.00 in 0.0 W/m2 CLR
02:20 28.4 °F 27.4 °F 30.35 in Calm     96% 0.00 in 0.0 W/m2 CLR
02:25 28.3 °F 27.3 °F 30.35 in Calm     96% 0.00 in 0.0 W/m2 CLR
02:30 28.3 °F 27.3 °F 30.35 in Calm     96% 0.00 in 0.0 W/m2 CLR
02:35 29.0 °F 28.3 °F 30.35 in Calm     97% 0.00 in 0.0 W/m2 CLR
02:40 29.1 °F 28.4 °F 30.35 in Calm     97% 0.00 in 0.0 W/m2 CLR
02:45 29.0 °F 28.3 °F 30.35 in Calm     97% 0.00 in 0.0 W/m2 CLR
02:50 29.0 °F 28.0 °F 30.35 in Calm     96% 0.00 in 0.0 W/m2 CLR
02:55 29.0 °F 28.0 °F 30.36 in Calm     96% 0.00 in 0.0 W/m2 CLR
03:00 29.2 °F 28.5 °F 30.36 in Calm     97% 0.00 in 0.0 W/m2 CLR
03:05 29.4 °F 28.6 °F 30.36 in Calm     97% 0.00 in 0.0 W/m2 CLR
03:10 29.3 °F 28.6 °F 30.36 in Calm     97% 0.00 in 0.0 W/m2 CLR
03:15 29.1 °F 28.1 °F 30.36 in Calm     96% 0.00 in 0.0 W/m2 CLR
03:25 28.5 °F 27.5 °F 30.36 in Calm     96% 0.00 in 0.0 W/m2 CLR
03:30 28.6 °F 27.6 °F 30.36 in Calm     96% 0.00 in 0.0 W/m2 CLR
03:35 28.6 °F 27.6 °F 30.36 in Calm     96% 0.00 in 0.0 W/m2 CLR
03:40 28.6 °F 27.9 °F 30.36 in Calm     97% 0.00 in 0.0 W/m2 CLR
03:45 28.5 °F 27.5 °F 30.36 in Calm     96% 0.00 in 0.0 W/m2 CLR
03:50 28.3 °F 27.3 °F 30.36 in Calm     96% 0.00 in 0.0 W/m2 CLR
03:55 28.2 °F 27.2 °F 30.36 in Calm     96% 0.00 in 0.0 W/m2 CLR
04:00 28.3 °F 27.5 °F 30.36 in Calm     97% 0.00 in 0.0 W/m2 CLR
04:10 28.6 °F 27.9 °F 30.35 in Calm     97% 0.00 in 0.0 W/m2 CLR
04:15 28.7 °F 28.0 °F 30.35 in Calm     97% 0.00 in 0.0 W/m2 CLR
04:20 28.6 °F 27.9 °F 30.35 in Calm     97% 0.00 in 0.0 W/m2 CLR
04:25 28.4 °F 27.4 °F 30.35 in Calm     96% 0.00 in 0.0 W/m2 CLR
04:30 28.5 °F 27.8 °F 30.35 in Calm     97% 0.00 in 0.0 W/m2 CLR
04:35 28.2 °F 27.2 °F 30.35 in Calm     96% 0.00 in 0.0 W/m2 CLR
04:40 28.1 °F 27.4 °F 30.35 in Calm     97% 0.00 in 0.0 W/m2 CLR
04:45 28.0 °F 27.3 °F 30.35 in Calm     97% 0.00 in 0.0 W/m2 CLR
04:50 28.0 °F 27.3 °F 30.35 in Calm     97% 0.00 in 0.0 W/m2 CLR
04:55 28.0 °F 27.0 °F 30.35 in Calm     96% 0.00 in 0.0 W/m2 CLR
05:00 27.8 °F 26.8 °F 30.35 in Calm     96% 0.00 in 0.0 W/m2 CLR
05:05 27.8 °F 26.8 °F 30.35 in Calm     96% 0.00 in 0.0 W/m2 CLR
05:10 27.7 °F 26.7 °F 30.35 in Calm     96% 0.00 in 0.0 W/m2 CLR
05:20 27.6 °F 26.9 °F 30.35 in Calm     97% 0.00 in 0.0 W/m2 CLR
05:25 27.7 °F 27.0 °F 30.35 in Calm     97% 0.00 in 0.0 W/m2 CLR
05:30 27.9 °F 27.2 °F 30.35 in Calm     97% 0.00 in 0.0 W/m2 CLR
05:35 27.9 °F 27.2 °F 30.35 in Calm     97% 0.00 in 0.0 W/m2 CLR
05:40 27.9 °F 27.2 °F 30.35 in Calm     97% 0.00 in 0.0 W/m2 CLR
05:45 27.8 °F 26.8 °F 30.35 in Calm     96% 0.00 in 0.0 W/m2 CLR
05:50 27.7 °F 27.0 °F 30.35 in Calm     97% 0.00 in 0.0 W/m2 CLR
05:55 27.5 °F 26.5 °F 30.35 in Calm     96% 0.00 in 0.0 W/m2 CLR
06:00 27.4 °F 26.7 °F 30.35 in Calm     97% 0.00 in 0.0 W/m2 CLR
06:05 27.4 °F 26.4 °F 30.35 in Calm     96% 0.00 in 0.0 W/m2 CLR
06:10 27.5 °F 26.8 °F 30.35 in Calm     97% 0.00 in 0.0 W/m2 CLR
06:15 28.0 °F 27.3 °F 30.35 in Calm     97% 0.00 in 0.0 W/m2 CLR
06:20 28.3 °F 27.6 °F 30.35 in Calm     97% 0.00 in 0.0 W/m2 CLR
06:25 28.3 °F 27.6 °F 30.35 in Calm     97% 0.00 in 0.0 W/m2 CLR
06:30 28.1 °F 27.4 °F 30.35 in Calm     97% 0.00 in 0.0 W/m2 CLR
06:35 27.8 °F 26.9 °F 30.35 in Calm     96% 0.00 in 0.0 W/m2 CLR
06:40 27.7 °F 26.7 °F 30.35 in Calm     96% 0.00 in 0.0 W/m2 CLR
06:45 27.7 °F 27.0 °F 30.35 in Calm     97% 0.00 in 0.0 W/m2 CLR
06:50 27.9 °F 27.2 °F 30.35 in Calm     97% 0.00 in 0.0 W/m2 CLR
06:55 28.0 °F 27.3 °F 30.35 in Calm     97% 0.00 in 0.0 W/m2 CLR
07:00 27.9 °F 27.2 °F 30.34 in Calm     97% 0.00 in 0.0 W/m2 CLR
07:05 27.9 °F 27.2 °F 30.34 in Calm     97% 0.00 in 0.0 W/m2 CLR
07:10 27.8 °F 27.1 °F 30.34 in Calm     97% 0.00 in 0.0 W/m2 CLR
07:15 27.5 °F 26.8 °F 30.34 in Calm     97% 0.00 in 0.0 W/m2 CLR
07:20 27.2 °F 26.2 °F 30.34 in Calm     96% 0.00 in 0.0 W/m2 CLR
07:25 26.9 °F 25.9 °F 30.34 in Calm     96% 0.00 in 0.0 W/m2 OVC
07:30 26.9 °F 25.9 °F 30.35 in Calm     96% 0.00 in 0.0 W/m2 OVC
07:35 26.9 °F 25.9 °F 30.35 in Calm     96% 0.00 in 0.0 W/m2 OVC
07:40 26.9 °F 26.2 °F 30.35 in Calm     97% 0.00 in 0.0 W/m2 OVC
07:45 27.1 °F 26.4 °F 30.35 in Calm     97% 0.00 in 0.0 W/m2 OVC
07:50 27.2 °F 26.5 °F 30.35 in Calm     97% 0.00 in 0.0 W/m2 OVC
08:00 27.9 °F 27.2 °F 30.35 in Calm     97% 0.00 in 0.0 W/m2 OVC
08:10 28.4 °F 27.7 °F 30.35 in Calm     97% 0.00 in 7.0 W/m2 OVC
08:15 28.7 °F 28.0 °F 30.35 in Calm     97% 0.00 in 12.0 W/m2 OVC
08:20 29.1 °F 28.4 °F 30.35 in Calm     97% 0.00 in 11.0 W/m2 OVC
08:30 29.7 °F 29.0 °F 30.35 in Calm     97% 0.00 in 14.0 W/m2 OVC
08:35 29.9 °F 29.2 °F 30.35 in Calm     97% 0.00 in 19.0 W/m2 OVC
08:40 30.2 °F 29.5 °F 30.35 in Calm     97% 0.00 in 19.0 W/m2 OVC
08:45 30.6 °F 29.8 °F 30.35 in Calm     97% 0.00 in 26.0 W/m2 OVC
08:50 31.0 °F 30.5 °F 30.35 in Calm     98% 0.00 in 26.0 W/m2 OVC
08:55 31.2 °F 30.7 °F 30.35 in Calm     98% 0.00 in 30.0 W/m2 OVC
09:00 31.5 °F 31.0 °F 30.35 in Calm     98% 0.00 in 30.0 W/m2 CLR
09:05 31.8 °F 31.0 °F 30.34 in Calm     97% 0.00 in 42.0 W/m2 CLR
09:10 32.0 °F 31.5 °F 30.34 in Calm     98% 0.00 in 42.0 W/m2 CLR
09:15 32.1 °F 31.6 °F 30.35 in Calm     98% 0.00 in 51.0 W/m2 CLR
09:20 32.2 °F 31.4 °F 30.35 in Calm     97% 0.00 in 53.0 W/m2 CLR
09:30 32.4 °F 31.7 °F 30.35 in Calm     97% 0.00 in 65.0 W/m2 CLR
09:35 32.7 °F 31.9 °F 30.35 in Calm     97% 0.00 in 77.0 W/m2 CLR
09:40 33.0 °F 32.2 °F 30.35 in Calm     97% 0.00 in 77.0 W/m2 CLR
09:45 33.3 °F 32.8 °F 30.35 in Calm     98% 0.00 in 76.0 W/m2 CLR
09:50 33.6 °F 33.1 °F 30.36 in Calm     98% 0.00 in 90.0 W/m2 CLR
09:55 33.9 °F 33.4 °F 30.36 in Calm     98% 0.00 in 90.0 W/m2 CLR
10:00 34.5 °F 34.0 °F 30.36 in Calm     98% 0.00 in 123.0 W/m2 CLR
10:10 36.2 °F 35.7 °F 30.35 in Calm     98% 0.00 in 116.0 W/m2 CLR
10:15 36.9 °F 36.3 °F 30.36 in Calm     98% 0.00 in 107.0 W/m2 CLR
10:20 37.0 °F 36.5 °F 30.36 in Calm     98% 0.00 in 109.0 W/m2 FEW
10:25 37.3 °F 36.7 °F 30.36 in Calm   1.0 mph 98% 0.00 in 104.0 W/m2 FEW
10:30 37.7 °F 37.2 °F 30.36 in Calm   1.0 mph 98% 0.00 in 116.0 W/m2 FEW
10:35 37.9 °F 37.4 °F 30.36 in Calm     98% 0.00 in 107.0 W/m2 SCT
10:40 38.0 °F 37.5 °F 30.36 in Calm     98% 0.00 in 120.0 W/m2 FEW
10:45 38.2 °F 37.7 °F 30.36 in Calm     98% 0.00 in 141.0 W/m2 FEW
10:50 38.2 °F 37.7 °F 30.35 in Calm     98% 0.00 in 188.0 W/m2 CLR
10:55 38.2 °F 37.7 °F 30.36 in Calm     98% 0.00 in 179.0 W/m2 CLR
11:00 38.4 °F 37.9 °F 30.35 in Calm     98% 0.00 in 146.0 W/m2 FEW
11:05 38.7 °F 38.2 °F 30.35 in Calm     98% 0.00 in 139.0 W/m2 SCT
11:10 38.9 °F 38.4 °F 30.35 in Calm     98% 0.00 in 114.0 W/m2 SCT
11:15 39.1 °F 38.6 °F 30.35 in Calm     98% 0.00 in 113.0 W/m2 SCT
11:20 39.2 °F 38.7 °F 30.36 in Calm     98% 0.00 in 134.0 W/m2 SCT
11:25 39.5 °F 39.0 °F 30.36 in Calm     98% 0.00 in 141.0 W/m2 SCT
11:30 39.7 °F 39.2 °F 30.35 in Calm     98% 0.00 in 155.0 W/m2 SCT
11:35 40.0 °F 39.5 °F 30.35 in Calm     98% 0.00 in 211.0 W/m2 CLR
11:40 40.4 °F 39.9 °F 30.36 in Calm     98% 0.00 in 151.0 W/m2 SCT
11:45 40.6 °F 40.1 °F 30.36 in Calm     98% 0.00 in 109.0 W/m2 BKN
11:50 40.8 °F 40.0 °F 30.35 in Calm     97% 0.00 in 104.0 W/m2 BKN
11:55 40.9 °F 40.1 °F 30.35 in Calm     97% 0.00 in 109.0 W/m2 BKN
12:00 41.1 °F 40.3 °F 30.35 in Calm     97% 0.00 in 309.0 W/m2 CLR
12:05 41.4 °F 40.6 °F 30.35 in Calm   2.0 mph 97% 0.00 in 283.0 W/m2 CLR
12:10 41.7 °F 40.9 °F 30.36 in Calm     97% 0.00 in 294.0 W/m2 CLR
12:15 42.0 °F 41.2 °F 30.36 in Calm     97% 0.00 in 309.0 W/m2 CLR
12:20 41.9 °F 40.8 °F 30.36 in Calm     96% 0.00 in 272.0 W/m2 CLR
12:25 41.9 °F 40.8 °F 30.35 in Calm     96% 0.00 in 283.0 W/m2 CLR
12:30 42.1 °F 40.8 °F 30.35 in Calm     95% 0.00 in 274.0 W/m2 CLR
12:35 42.2 °F 40.9 °F 30.35 in Calm     95% 0.00 in 276.0 W/m2 CLR
12:40 42.4 °F 40.8 °F 30.35 in Calm     94% 0.00 in 269.0 W/m2 CLR
12:45 42.7 °F 41.1 °F 30.35 in Calm     94% 0.00 in 271.0 W/m2 CLR
12:50 42.9 °F 41.0 °F 30.35 in Calm     93% 0.00 in 271.0 W/m2 CLR
12:55 43.1 °F 40.9 °F 30.35 in Calm     92% 0.00 in 271.0 W/m2 CLR
13:00 43.2 °F 40.8 °F 30.35 in Calm     91% 0.00 in 271.0 W/m2 CLR
13:05 43.3 °F 40.8 °F 30.35 in Calm     91% 0.00 in 269.0 W/m2 CLR
13:10 43.5 °F 40.8 °F 30.35 in Calm     90% 0.00 in 269.0 W/m2 CLR
13:15 43.5 °F 40.7 °F 30.35 in Calm     90% 0.00 in 265.0 W/m2 CLR
13:20 43.5 °F 40.8 °F 30.36 in WNW 2.0 mph 9.0 mph 90% 0.00 in 260.0 W/m2 CLR
13:25 43.4 °F 40.7 °F 30.36 in Calm   8.0 mph 90% 0.00 in 260.0 W/m2 CLR
13:30 43.2 °F 40.5 °F 30.36 in Calm   7.0 mph 90% 0.00 in 250.0 W/m2 CLR
13:35 43.1 °F 40.4 °F 30.36 in WNW 2.0 mph 8.0 mph 90% 0.00 in 251.0 W/m2 CLR
13:40 43.1 °F 40.4 °F 30.36 in West 1.0 mph 7.0 mph 90% 0.00 in 246.0 W/m2 CLR
13:45 43.0 °F 40.3 °F 30.36 in Calm   3.0 mph 90% 0.00 in 241.0 W/m2 CLR
13:50 43.0 °F 40.3 °F 30.36 in Calm   2.0 mph 90% 0.00 in 232.0 W/m2 FEW
13:55 43.2 °F 40.4 °F 30.36 in Calm     90% 0.00 in 227.0 W/m2 FEW
14:00 43.3 °F 40.2 °F 30.36 in Calm   2.0 mph 89% 0.00 in 216.0 W/m2 FEW
14:10 43.4 °F 40.1 °F 30.38 in Calm   1.0 mph 88% 0.00 in 200.0 W/m2 FEW
14:15 43.5 °F 40.2 °F 30.38 in WNW 1.0 mph 8.0 mph 88% 0.00 in 188.0 W/m2 FEW
14:20 43.6 °F 40.3 °F 30.38 in WNW 5.0 mph 8.0 mph 88% 0.00 in 181.0 W/m2 FEW
14:25 43.7 °F 40.4 °F 30.38 in West 1.0 mph 4.0 mph 88% 0.00 in 172.0 W/m2 SCT
14:30 43.6 °F 40.3 °F 30.37 in Calm   3.0 mph 88% 0.00 in 165.0 W/m2 SCT
14:45 43.7 °F 40.4 °F 30.37 in Calm   3.0 mph 88% 0.00 in 134.0 W/m2 SCT
14:50 43.7 °F 40.4 °F 30.38 in Calm   4.0 mph 88% 0.00 in 125.0 W/m2 SCT
14:55 43.7 °F 40.4 °F 30.38 in Calm   3.0 mph 88% 0.00 in 114.0 W/m2 SCT
15:00 43.8 °F 40.5 °F 30.38 in Calm   1.0 mph 88% 0.00 in 62.0 W/m2 OVC
15:05 43.6 °F 40.0 °F 30.38 in Calm     87% 0.00 in 54.0 W/m2 OVC
15:15 43.2 °F 39.9 °F 30.38 in ENE 3.0 mph 6.0 mph 88% 0.00 in 79.0 W/m2 BKN
15:20 43.1 °F 39.8 °F 30.37 in ENE 2.0 mph 4.0 mph 88% 0.00 in 70.0 W/m2 BKN
15:25 42.9 °F 39.5 °F 30.37 in East 5.0 mph 7.0 mph 88% 0.00 in 65.0 W/m2 BKN
15:30 42.5 °F 39.5 °F 30.37 in East 3.0 mph 7.0 mph 89% 0.00 in 35.0 W/m2 OVC
15:40 41.9 °F 38.9 °F 30.36 in East 2.0 mph 6.0 mph 89% 0.00 in 32.0 W/m2 OVC
15:45 41.8 °F 39.1 °F 30.37 in Calm   1.0 mph 90% 0.00 in 32.0 W/m2 OVC
15:50 41.5 °F 38.8 °F 30.36 in East 2.0 mph 4.0 mph 90% 0.00 in 26.0 W/m2 OVC
15:55 41.2 °F 38.5 °F 30.36 in East 2.0 mph 4.0 mph 90% 0.00 in 18.0 W/m2 OVC
16:00 41.0 °F 38.3 °F 30.36 in East 3.0 mph 6.0 mph 90% 0.00 in 18.0 W/m2 OVC
16:05 40.8 °F 38.1 °F 30.36 in Calm   3.0 mph 90% 0.00 in 14.0 W/m2 OVC
16:10 40.5 °F 38.1 °F 30.36 in Calm     91% 0.00 in 9.0 W/m2 OVC
16:15 40.1 °F 37.4 °F 30.36 in Calm   1.0 mph 90% 0.00 in 9.0 W/m2 OVC
16:20 39.8 °F 37.4 °F 30.37 in Calm   1.0 mph 91% 0.00 in 0.0 W/m2 OVC
16:30 39.0 °F 36.6 °F 30.37 in Calm     91% 0.00 in 0.0 W/m2 OVC
16:35 38.5 °F 36.4 °F 30.38 in SW 3.0 mph 4.0 mph 92% 0.00 in 0.0 W/m2 OVC
16:40 38.4 °F 36.5 °F 30.38 in WNW 1.0 mph 4.0 mph 93% 0.00 in 0.0 W/m2 OVC
16:45 38.2 °F 36.4 °F 30.38 in WNW 1.0 mph 3.0 mph 93% 0.00 in 0.0 W/m2 OVC
16:50 37.8 °F 36.0 °F 30.38 in Calm   3.0 mph 93% 0.00 in 0.0 W/m2 CLR
16:55 37.5 °F 35.7 °F 30.38 in Calm   3.0 mph 93% 0.00 in 0.0 W/m2 CLR
17:00 37.5 °F 35.9 °F 30.38 in Calm     94% 0.00 in 0.0 W/m2 CLR
17:05 37.5 °F 35.9 °F 30.38 in Calm     94% 0.00 in 0.0 W/m2 CLR
17:10 37.5 °F 35.9 °F 30.38 in Calm     94% 0.00 in 0.0 W/m2 CLR
17:20 37.1 °F 35.6 °F 30.39 in Calm     94% 0.00 in 0.0 W/m2 CLR
17:25 37.1 °F 35.5 °F 30.38 in Calm     94% 0.00 in 0.0 W/m2 CLR
17:30 37.2 °F 35.9 °F 30.39 in West 1.0 mph 2.0 mph 95% 0.00 in 0.0 W/m2 CLR
17:35 37.0 °F 35.4 °F 30.38 in Calm   1.0 mph 94% 0.00 in 0.0 W/m2 CLR
17:40 36.8 °F 35.2 °F 30.38 in Calm     94% 0.00 in 0.0 W/m2 CLR
17:50 36.0 °F 34.4 °F 30.38 in Calm     94% 0.00 in 0.0 W/m2 CLR
17:55 35.6 °F 34.0 °F 30.38 in Calm     94% 0.00 in 0.0 W/m2 CLR
18:00 35.6 °F 34.0 °F 30.39 in Calm     94% 0.00 in 0.0 W/m2 CLR
18:05 35.3 °F 33.7 °F 30.38 in Calm     94% 0.00 in 0.0 W/m2 CLR
18:15 34.8 °F 33.5 °F 30.38 in Calm     95% 0.00 in 0.0 W/m2 CLR
18:20 34.6 °F 33.0 °F 30.38 in Calm     94% 0.00 in 0.0 W/m2 CLR
18:25 34.1 °F 32.8 °F 30.38 in Calm   1.0 mph 95% 0.00 in 0.0 W/m2 CLR
18:30 33.7 °F 32.4 °F 30.37 in Calm     95% 0.00 in 0.0 W/m2 CLR
18:35 33.2 °F 31.6 °F 30.37 in Calm     94% 0.00 in 0.0 W/m2 CLR
18:40 33.3 °F 32.3 °F 30.37 in Calm     96% 0.00 in 0.0 W/m2 CLR
18:45 33.4 °F 32.1 °F 30.38 in Calm     95% 0.00 in 0.0 W/m2 CLR
18:50 32.9 °F 31.7 °F 30.39 in Calm   2.0 mph 95% 0.00 in 0.0 W/m2 CLR
18:55 33.2 °F 32.2 °F 30.39 in Calm     96% 0.00 in 0.0 W/m2 CLR
19:00 33.2 °F 32.2 °F 30.40 in Calm     96% 0.00 in 0.0 W/m2 CLR
19:05 33.0 °F 31.7 °F 30.40 in Calm     95% 0.00 in 0.0 W/m2 CLR
19:10 33.0 °F 32.0 °F 30.40 in Calm     96% 0.00 in 0.0 W/m2 CLR
19:15 33.0 °F 32.0 °F 30.40 in Calm     96% 0.00 in 0.0 W/m2 CLR
19:25 33.2 °F 32.2 °F 30.41 in Calm     96% 0.00 in 0.0 W/m2 CLR
19:30 33.3 °F 32.3 °F 30.42 in Calm     96% 0.00 in 0.0 W/m2 CLR
19:35 33.5 °F 32.4 °F 30.42 in Calm     96% 0.00 in 0.0 W/m2 CLR
19:40 33.6 °F 32.6 °F 30.42 in Calm     96% 0.00 in 0.0 W/m2 CLR
19:45 33.3 °F 32.3 °F 30.42 in Calm     96% 0.00 in 0.0 W/m2 CLR
19:50 33.0 °F 32.0 °F 30.41 in Calm     96% 0.00 in 0.0 W/m2 CLR
19:55 32.4 °F 31.2 °F 30.41 in Calm     95% 0.00 in 0.0 W/m2 CLR
20:00 31.9 °F 30.7 °F 30.41 in Calm     95% 0.00 in 0.0 W/m2 CLR
20:10 31.9 °F 30.9 °F 30.41 in Calm     96% 0.00 in 0.0 W/m2 CLR
20:15 31.9 °F 30.9 °F 30.41 in Calm     96% 0.00 in 0.0 W/m2 CLR
20:20 31.6 °F 30.6 °F 30.41 in Calm     96% 0.00 in 0.0 W/m2 CLR
20:25 31.7 °F 30.7 °F 30.41 in Calm     96% 0.00 in 0.0 W/m2 CLR
20:30 31.7 °F 30.7 °F 30.41 in Calm     96% 0.00 in 0.0 W/m2 CLR
20:40 31.5 °F 30.5 °F 30.41 in Calm     96% 0.00 in 0.0 W/m2 CLR
20:45 31.3 °F 30.3 °F 30.42 in Calm     96% 0.00 in 0.0 W/m2 CLR
20:50 31.4 °F 30.4 °F 30.42 in Calm     96% 0.00 in 0.0 W/m2 CLR
20:55 31.1 °F 30.1 °F 30.42 in Calm     96% 0.00 in 0.0 W/m2 CLR
21:00 31.0 °F 30.0 °F 30.42 in Calm     96% 0.00 in 0.0 W/m2 CLR
21:05 30.6 °F 29.3 °F 30.42 in Calm     95% 0.00 in 0.0 W/m2 CLR
21:10 30.9 °F 29.9 °F 30.42 in Calm     96% 0.00 in 0.0 W/m2 CLR
21:15 30.9 °F 29.9 °F 30.42 in Calm     96% 0.00 in 0.0 W/m2 CLR
21:20 31.1 °F 30.1 °F 30.42 in Calm     96% 0.00 in 0.0 W/m2 CLR
21:25 30.7 °F 29.7 °F 30.42 in Calm     96% 0.00 in 0.0 W/m2 CLR
21:30 30.5 °F 29.5 °F 30.42 in Calm     96% 0.00 in 0.0 W/m2 CLR
21:35 30.3 °F 29.3 °F 30.42 in Calm     96% 0.00 in 0.0 W/m2 CLR
21:40 30.2 °F 29.2 °F 30.42 in Calm     96% 0.00 in 0.0 W/m2 CLR
21:45 30.3 °F 29.3 °F 30.41 in Calm     96% 0.00 in 0.0 W/m2 CLR
21:50 30.3 °F 29.3 °F 30.41 in Calm     96% 0.00 in 0.0 W/m2 CLR
21:55 30.3 °F 29.3 °F 30.41 in Calm     96% 0.00 in 0.0 W/m2 CLR
22:00 30.2 °F 29.2 °F 30.41 in Calm     96% 0.00 in 0.0 W/m2 CLR
22:10 30.1 °F 29.1 °F 30.42 in Calm     96% 0.00 in 0.0 W/m2 CLR
Donkey Whisperer Farm
Compliments of Weather Underground - 2.75 mb